sensor_id;sensor_type;location;lat;lon;timestamp;P1;durP1;ratioP1;P2;durP2;ratioP2
51560;SDS011;37654;51.262;17.058;2023-02-01T00:00:28;7.00;;;1.70;;
51560;SDS011;37654;51.262;17.058;2023-02-01T00:02:54;5.60;;;1.67;;
51560;SDS011;37654;51.262;17.058;2023-02-01T00:05:19;8.40;;;1.20;;
51560;SDS011;37654;51.262;17.058;2023-02-01T00:07:46;8.40;;;1.65;;
51560;SDS011;37654;51.262;17.058;2023-02-01T00:10:14;8.52;;;2.55;;
51560;SDS011;37654;51.262;17.058;2023-02-01T00:12:39;5.40;;;1.70;;
51560;SDS011;37654;51.262;17.058;2023-02-01T00:15:05;10.90;;;1.70;;
51560;SDS011;37654;51.262;17.058;2023-02-01T00:17:30;8.73;;;1.80;;
51560;SDS011;37654;51.262;17.058;2023-02-01T00:19:56;8.02;;;1.95;;
51560;SDS011;37654;51.262;17.058;2023-02-01T00:22:21;11.02;;;1.60;;
51560;SDS011;37654;51.262;17.058;2023-02-01T00:24:47;6.65;;;1.73;;
51560;SDS011;37654;51.262;17.058;2023-02-01T00:27:12;9.02;;;1.17;;
51560;SDS011;37654;51.262;17.058;2023-02-01T00:29:42;7.22;;;2.20;;
51560;SDS011;37654;51.262;17.058;2023-02-01T00:32:08;7.10;;;1.63;;
51560;SDS011;37654;51.262;17.058;2023-02-01T00:34:34;8.00;;;1.83;;
51560;SDS011;37654;51.262;17.058;2023-02-01T00:36:59;8.23;;;1.60;;
51560;SDS011;37654;51.262;17.058;2023-02-01T00:39:25;6.00;;;1.77;;
51560;SDS011;37654;51.262;17.058;2023-02-01T00:41:50;9.25;;;1.42;;
51560;SDS011;37654;51.262;17.058;2023-02-01T00:44:16;7.63;;;1.25;;
51560;SDS011;37654;51.262;17.058;2023-02-01T00:46:41;7.90;;;1.60;;
51560;SDS011;37654;51.262;17.058;2023-02-01T00:49:07;6.97;;;1.70;;
51560;SDS011;37654;51.262;17.058;2023-02-01T00:51:34;7.93;;;1.88;;
51560;SDS011;37654;51.262;17.058;2023-02-01T00:53:59;10.27;;;2.33;;
51560;SDS011;37654;51.262;17.058;2023-02-01T00:56:25;7.90;;;2.10;;
51560;SDS011;37654;51.262;17.058;2023-02-01T00:58:52;11.77;;;1.90;;
51560;SDS011;37654;51.262;17.058;2023-02-01T01:01:19;8.70;;;1.98;;
51560;SDS011;37654;51.262;17.058;2023-02-01T01:03:48;11.18;;;2.50;;
51560;SDS011;37654;51.262;17.058;2023-02-01T01:06:19;7.38;;;1.85;;
51560;SDS011;37654;51.262;17.058;2023-02-01T01:08:46;9.45;;;2.30;;
51560;SDS011;37654;51.262;17.058;2023-02-01T01:11:16;13.32;;;2.70;;
51560;SDS011;37654;51.262;17.058;2023-02-01T01:13:43;13.50;;;3.22;;
51560;SDS011;37654;51.262;17.058;2023-02-01T01:16:11;11.48;;;2.03;;
51560;SDS011;37654;51.262;17.058;2023-02-01T01:18:37;11.70;;;2.05;;
51560;SDS011;37654;51.262;17.058;2023-02-01T01:21:07;10.43;;;1.83;;
51560;SDS011;37654;51.262;17.058;2023-02-01T01:23:34;7.50;;;1.60;;
51560;SDS011;37654;51.262;17.058;2023-02-01T01:26:00;7.03;;;2.17;;
51560;SDS011;37654;51.262;17.058;2023-02-01T01:28:29;12.73;;;2.47;;
51560;SDS011;37654;51.262;17.058;2023-02-01T01:30:54;9.20;;;1.88;;
51560;SDS011;37654;51.262;17.058;2023-02-01T01:33:20;10.07;;;2.00;;
51560;SDS011;37654;51.262;17.058;2023-02-01T01:35:45;5.43;;;1.50;;
51560;SDS011;37654;51.262;17.058;2023-02-01T01:38:11;9.57;;;1.48;;
51560;SDS011;37654;51.262;17.058;2023-02-01T01:40:36;8.88;;;1.98;;
51560;SDS011;37654;51.262;17.058;2023-02-01T01:43:02;12.25;;;1.58;;
51560;SDS011;37654;51.262;17.058;2023-02-01T01:45:34;6.25;;;1.33;;
51560;SDS011;37654;51.262;17.058;2023-02-01T01:50:43;6.63;;;1.48;;
51560;SDS011;37654;51.262;17.058;2023-02-01T01:53:13;3.60;;;1.08;;
51560;SDS011;37654;51.262;17.058;2023-02-01T01:55:43;6.85;;;1.38;;
51560;SDS011;37654;51.262;17.058;2023-02-01T01:58:12;5.00;;;0.85;;
51560;SDS011;37654;51.262;17.058;2023-02-01T02:00:42;10.15;;;2.42;;
51560;SDS011;37654;51.262;17.058;2023-02-01T02:05:50;11.20;;;1.60;;
51560;SDS011;37654;51.262;17.058;2023-02-01T02:08:19;6.70;;;1.30;;
51560;SDS011;37654;51.262;17.058;2023-02-01T02:10:46;9.88;;;1.50;;
51560;SDS011;37654;51.262;17.058;2023-02-01T02:13:28;6.40;;;1.15;;
51560;SDS011;37654;51.262;17.058;2023-02-01T02:16:11;8.13;;;1.65;;
51560;SDS011;37654;51.262;17.058;2023-02-01T02:34:38;8.23;;;1.50;;
51560;SDS011;37654;51.262;17.058;2023-02-01T02:37:14;14.50;;;3.00;;
51560;SDS011;37654;51.262;17.058;2023-02-01T02:42:43;11.23;;;1.70;;
51560;SDS011;37654;51.262;17.058;2023-02-01T02:48:38;7.68;;;2.30;;
51560;SDS011;37654;51.262;17.058;2023-02-01T02:54:15;14.60;;;3.58;;
51560;SDS011;37654;51.262;17.058;2023-02-01T02:56:57;21.77;;;4.55;;
51560;SDS011;37654;51.262;17.058;2023-02-01T02:59:40;17.95;;;4.00;;
51560;SDS011;37654;51.262;17.058;2023-02-01T03:02:23;10.77;;;3.85;;
51560;SDS011;37654;51.262;17.058;2023-02-01T03:05:06;9.35;;;3.03;;
51560;SDS011;37654;51.262;17.058;2023-02-01T03:10:37;18.70;;;3.67;;
51560;SDS011;37654;51.262;17.058;2023-02-01T03:15:42;14.50;;;2.90;;
51560;SDS011;37654;51.262;17.058;2023-02-01T03:18:21;20.13;;;3.28;;
51560;SDS011;37654;51.262;17.058;2023-02-01T03:20:51;21.70;;;3.40;;
51560;SDS011;37654;51.262;17.058;2023-02-01T03:23:20;13.40;;;3.00;;
51560;SDS011;37654;51.262;17.058;2023-02-01T03:25:49;20.25;;;3.55;;
51560;SDS011;37654;51.262;17.058;2023-02-01T03:28:17;11.80;;;2.58;;
51560;SDS011;37654;51.262;17.058;2023-02-01T03:30:46;15.25;;;1.88;;
51560;SDS011;37654;51.262;17.058;2023-02-01T03:33:15;19.00;;;2.92;;
51560;SDS011;37654;51.262;17.058;2023-02-01T03:38:32;15.00;;;2.47;;
51560;SDS011;37654;51.262;17.058;2023-02-01T03:43:29;12.93;;;2.72;;
51560;SDS011;37654;51.262;17.058;2023-02-01T03:46:03;19.13;;;2.80;;
51560;SDS011;37654;51.262;17.058;2023-02-01T03:48:34;13.68;;;2.83;;
51560;SDS011;37654;51.262;17.058;2023-02-01T03:51:00;21.48;;;2.80;;
51560;SDS011;37654;51.262;17.058;2023-02-01T03:53:29;15.15;;;3.10;;
51560;SDS011;37654;51.262;17.058;2023-02-01T03:55:56;13.93;;;3.45;;
51560;SDS011;37654;51.262;17.058;2023-02-01T03:58:22;18.85;;;2.67;;
51560;SDS011;37654;51.262;17.058;2023-02-01T04:00:53;15.02;;;3.22;;
51560;SDS011;37654;51.262;17.058;2023-02-01T04:03:20;17.00;;;2.55;;
51560;SDS011;37654;51.262;17.058;2023-02-01T04:05:47;16.25;;;2.28;;
51560;SDS011;37654;51.262;17.058;2023-02-01T04:08:13;16.50;;;2.20;;
51560;SDS011;37654;51.262;17.058;2023-02-01T04:10:39;19.88;;;4.03;;
51560;SDS011;37654;51.262;17.058;2023-02-01T04:13:04;21.00;;;3.42;;
51560;SDS011;37654;51.262;17.058;2023-02-01T04:15:30;18.58;;;2.90;;
51560;SDS011;37654;51.262;17.058;2023-02-01T04:17:55;11.30;;;2.90;;
51560;SDS011;37654;51.262;17.058;2023-02-01T04:20:20;14.65;;;2.70;;
51560;SDS011;37654;51.262;17.058;2023-02-01T04:22:46;19.30;;;3.70;;
51560;SDS011;37654;51.262;17.058;2023-02-01T04:25:11;20.45;;;3.15;;
51560;SDS011;37654;51.262;17.058;2023-02-01T04:27:37;21.13;;;3.47;;
51560;SDS011;37654;51.262;17.058;2023-02-01T04:30:05;14.40;;;2.53;;
51560;SDS011;37654;51.262;17.058;2023-02-01T04:32:34;21.75;;;2.95;;
51560;SDS011;37654;51.262;17.058;2023-02-01T04:35:01;18.60;;;3.30;;
51560;SDS011;37654;51.262;17.058;2023-02-01T04:37:26;13.15;;;3.08;;
51560;SDS011;37654;51.262;17.058;2023-02-01T04:39:52;17.17;;;2.28;;
51560;SDS011;37654;51.262;17.058;2023-02-01T04:42:17;12.55;;;2.47;;
51560;SDS011;37654;51.262;17.058;2023-02-01T04:44:42;17.17;;;2.63;;
51560;SDS011;37654;51.262;17.058;2023-02-01T04:47:08;14.27;;;2.72;;
51560;SDS011;37654;51.262;17.058;2023-02-01T04:49:34;13.40;;;2.25;;
51560;SDS011;37654;51.262;17.058;2023-02-01T04:51:59;20.40;;;3.03;;
51560;SDS011;37654;51.262;17.058;2023-02-01T04:54:25;14.48;;;3.75;;
51560;SDS011;37654;51.262;17.058;2023-02-01T04:56:50;20.77;;;3.83;;
51560;SDS011;37654;51.262;17.058;2023-02-01T04:59:16;9.27;;;2.65;;
51560;SDS011;37654;51.262;17.058;2023-02-01T05:01:41;15.30;;;2.92;;
51560;SDS011;37654;51.262;17.058;2023-02-01T05:04:06;17.55;;;4.38;;
51560;SDS011;37654;51.262;17.058;2023-02-01T05:06:32;13.43;;;2.45;;
51560;SDS011;37654;51.262;17.058;2023-02-01T05:08:57;16.67;;;3.55;;
51560;SDS011;37654;51.262;17.058;2023-02-01T05:11:23;14.80;;;3.08;;
51560;SDS011;37654;51.262;17.058;2023-02-01T05:14:02;18.75;;;2.83;;
51560;SDS011;37654;51.262;17.058;2023-02-01T05:16:27;20.88;;;3.65;;
51560;SDS011;37654;51.262;17.058;2023-02-01T05:18:53;13.25;;;2.70;;
51560;SDS011;37654;51.262;17.058;2023-02-01T05:21:19;19.83;;;3.85;;
51560;SDS011;37654;51.262;17.058;2023-02-01T05:23:44;16.50;;;3.40;;
51560;SDS011;37654;51.262;17.058;2023-02-01T05:26:25;10.13;;;3.05;;
51560;SDS011;37654;51.262;17.058;2023-02-01T05:28:50;16.55;;;3.20;;
51560;SDS011;37654;51.262;17.058;2023-02-01T05:31:16;18.75;;;3.03;;
51560;SDS011;37654;51.262;17.058;2023-02-01T05:33:42;34.63;;;6.97;;
51560;SDS011;37654;51.262;17.058;2023-02-01T05:36:07;15.18;;;2.67;;
51560;SDS011;37654;51.262;17.058;2023-02-01T05:38:33;26.55;;;3.58;;
51560;SDS011;37654;51.262;17.058;2023-02-01T05:40:58;10.98;;;3.20;;
51560;SDS011;37654;51.262;17.058;2023-02-01T05:43:23;22.23;;;4.50;;
51560;SDS011;37654;51.262;17.058;2023-02-01T05:45:51;14.48;;;3.40;;
51560;SDS011;37654;51.262;17.058;2023-02-01T05:48:16;15.48;;;3.38;;
51560;SDS011;37654;51.262;17.058;2023-02-01T05:50:42;14.93;;;3.00;;
51560;SDS011;37654;51.262;17.058;2023-02-01T05:53:08;15.00;;;2.83;;
51560;SDS011;37654;51.262;17.058;2023-02-01T05:55:33;21.13;;;4.43;;
51560;SDS011;37654;51.262;17.058;2023-02-01T05:57:59;18.38;;;2.70;;
51560;SDS011;37654;51.262;17.058;2023-02-01T06:00:24;22.77;;;4.68;;
51560;SDS011;37654;51.262;17.058;2023-02-01T06:02:50;16.67;;;3.78;;
51560;SDS011;37654;51.262;17.058;2023-02-01T06:05:15;20.88;;;4.18;;
51560;SDS011;37654;51.262;17.058;2023-02-01T06:07:41;12.73;;;2.88;;
51560;SDS011;37654;51.262;17.058;2023-02-01T06:10:07;19.65;;;2.80;;
51560;SDS011;37654;51.262;17.058;2023-02-01T06:12:33;18.98;;;3.13;;
51560;SDS011;37654;51.262;17.058;2023-02-01T06:14:59;15.50;;;4.28;;
51560;SDS011;37654;51.262;17.058;2023-02-01T06:17:24;18.58;;;3.10;;
51560;SDS011;37654;51.262;17.058;2023-02-01T06:19:50;16.30;;;3.72;;
51560;SDS011;37654;51.262;17.058;2023-02-01T06:22:15;12.98;;;2.72;;
51560;SDS011;37654;51.262;17.058;2023-02-01T06:24:41;31.00;;;5.35;;
51560;SDS011;37654;51.262;17.058;2023-02-01T06:27:06;26.40;;;5.28;;
51560;SDS011;37654;51.262;17.058;2023-02-01T06:29:32;22.52;;;4.55;;
51560;SDS011;37654;51.262;17.058;2023-02-01T06:31:58;23.08;;;6.13;;
51560;SDS011;37654;51.262;17.058;2023-02-01T06:34:24;20.55;;;5.90;;
51560;SDS011;37654;51.262;17.058;2023-02-01T06:36:49;13.80;;;3.08;;
51560;SDS011;37654;51.262;17.058;2023-02-01T06:39:15;14.25;;;3.00;;
51560;SDS011;37654;51.262;17.058;2023-02-01T06:41:41;11.68;;;3.00;;
51560;SDS011;37654;51.262;17.058;2023-02-01T06:44:16;19.60;;;3.80;;
51560;SDS011;37654;51.262;17.058;2023-02-01T06:46:42;12.57;;;3.80;;
51560;SDS011;37654;51.262;17.058;2023-02-01T06:49:07;9.75;;;2.50;;
51560;SDS011;37654;51.262;17.058;2023-02-01T06:51:33;19.38;;;3.53;;
51560;SDS011;37654;51.262;17.058;2023-02-01T06:53:59;11.73;;;3.28;;
51560;SDS011;37654;51.262;17.058;2023-02-01T06:56:25;10.68;;;3.03;;
51560;SDS011;37654;51.262;17.058;2023-02-01T06:58:51;14.35;;;2.63;;
51560;SDS011;37654;51.262;17.058;2023-02-01T07:01:17;12.75;;;2.53;;
51560;SDS011;37654;51.262;17.058;2023-02-01T07:03:43;9.50;;;2.85;;
51560;SDS011;37654;51.262;17.058;2023-02-01T07:06:12;18.80;;;2.85;;
51560;SDS011;37654;51.262;17.058;2023-02-01T07:08:38;16.13;;;3.15;;
51560;SDS011;37654;51.262;17.058;2023-02-01T07:11:08;18.63;;;3.13;;
51560;SDS011;37654;51.262;17.058;2023-02-01T07:13:35;19.08;;;3.60;;
51560;SDS011;37654;51.262;17.058;2023-02-01T07:16:02;17.00;;;2.95;;
51560;SDS011;37654;51.262;17.058;2023-02-01T07:18:29;16.38;;;4.53;;
51560;SDS011;37654;51.262;17.058;2023-02-01T07:20:55;22.15;;;5.38;;
51560;SDS011;37654;51.262;17.058;2023-02-01T07:23:21;14.63;;;2.83;;
51560;SDS011;37654;51.262;17.058;2023-02-01T07:25:47;15.10;;;3.50;;
51560;SDS011;37654;51.262;17.058;2023-02-01T07:28:13;15.32;;;4.03;;
51560;SDS011;37654;51.262;17.058;2023-02-01T07:30:39;9.15;;;3.00;;
51560;SDS011;37654;51.262;17.058;2023-02-01T07:33:04;14.48;;;3.13;;
51560;SDS011;37654;51.262;17.058;2023-02-01T07:35:31;22.10;;;2.70;;
51560;SDS011;37654;51.262;17.058;2023-02-01T07:37:57;21.02;;;3.13;;
51560;SDS011;37654;51.262;17.058;2023-02-01T07:40:23;14.52;;;2.55;;
51560;SDS011;37654;51.262;17.058;2023-02-01T07:42:54;23.20;;;4.50;;
51560;SDS011;37654;51.262;17.058;2023-02-01T07:45:20;14.27;;;2.83;;
51560;SDS011;37654;51.262;17.058;2023-02-01T07:47:47;15.57;;;3.28;;
51560;SDS011;37654;51.262;17.058;2023-02-01T07:50:12;15.32;;;4.32;;
51560;SDS011;37654;51.262;17.058;2023-02-01T07:52:38;14.27;;;2.58;;
51560;SDS011;37654;51.262;17.058;2023-02-01T07:55:05;19.83;;;4.47;;
51560;SDS011;37654;51.262;17.058;2023-02-01T07:57:31;19.35;;;4.90;;
51560;SDS011;37654;51.262;17.058;2023-02-01T07:59:56;19.67;;;5.18;;
51560;SDS011;37654;51.262;17.058;2023-02-01T08:02:35;24.55;;;6.00;;
51560;SDS011;37654;51.262;17.058;2023-02-01T08:05:01;19.02;;;5.25;;
51560;SDS011;37654;51.262;17.058;2023-02-01T08:07:26;20.85;;;5.97;;
51560;SDS011;37654;51.262;17.058;2023-02-01T08:09:52;19.83;;;4.97;;
51560;SDS011;37654;51.262;17.058;2023-02-01T08:12:17;20.67;;;5.30;;
51560;SDS011;37654;51.262;17.058;2023-02-01T08:14:43;17.90;;;5.03;;
51560;SDS011;37654;51.262;17.058;2023-02-01T08:17:08;18.63;;;5.95;;
51560;SDS011;37654;51.262;17.058;2023-02-01T08:19:34;27.92;;;7.53;;
51560;SDS011;37654;51.262;17.058;2023-02-01T08:21:59;19.60;;;5.38;;
51560;SDS011;37654;51.262;17.058;2023-02-01T08:24:26;14.43;;;4.22;;
51560;SDS011;37654;51.262;17.058;2023-02-01T08:26:52;16.88;;;3.72;;
51560;SDS011;37654;51.262;17.058;2023-02-01T08:29:17;18.45;;;3.30;;
51560;SDS011;37654;51.262;17.058;2023-02-01T08:31:43;16.38;;;3.10;;
51560;SDS011;37654;51.262;17.058;2023-02-01T08:34:09;14.68;;;3.20;;
51560;SDS011;37654;51.262;17.058;2023-02-01T08:36:34;14.30;;;3.55;;
51560;SDS011;37654;51.262;17.058;2023-02-01T08:39:00;12.45;;;3.58;;
51560;SDS011;37654;51.262;17.058;2023-02-01T08:41:28;17.17;;;5.47;;
51560;SDS011;37654;51.262;17.058;2023-02-01T08:43:55;13.27;;;3.15;;
51560;SDS011;37654;51.262;17.058;2023-02-01T08:46:21;20.55;;;4.60;;
51560;SDS011;37654;51.262;17.058;2023-02-01T08:48:47;16.63;;;4.53;;
51560;SDS011;37654;51.262;17.058;2023-02-01T08:51:15;17.55;;;3.78;;
51560;SDS011;37654;51.262;17.058;2023-02-01T08:53:42;12.38;;;3.45;;
51560;SDS011;37654;51.262;17.058;2023-02-01T08:56:08;13.40;;;3.75;;
51560;SDS011;37654;51.262;17.058;2023-02-01T08:58:35;13.63;;;2.83;;
51560;SDS011;37654;51.262;17.058;2023-02-01T09:01:07;13.75;;;3.67;;
51560;SDS011;37654;51.262;17.058;2023-02-01T09:03:35;12.93;;;3.00;;
51560;SDS011;37654;51.262;17.058;2023-02-01T09:06:03;21.48;;;3.75;;
51560;SDS011;37654;51.262;17.058;2023-02-01T09:08:31;9.50;;;2.60;;
51560;SDS011;37654;51.262;17.058;2023-02-01T09:11:00;14.75;;;3.10;;
51560;SDS011;37654;51.262;17.058;2023-02-01T09:13:27;12.98;;;3.15;;
51560;SDS011;37654;51.262;17.058;2023-02-01T09:15:53;13.60;;;3.63;;
51560;SDS011;37654;51.262;17.058;2023-02-01T09:18:18;18.10;;;3.28;;
51560;SDS011;37654;51.262;17.058;2023-02-01T09:20:43;15.35;;;3.40;;
51560;SDS011;37654;51.262;17.058;2023-02-01T09:23:09;13.15;;;3.65;;
51560;SDS011;37654;51.262;17.058;2023-02-01T09:25:36;17.52;;;3.55;;
51560;SDS011;37654;51.262;17.058;2023-02-01T09:28:02;13.27;;;3.58;;
51560;SDS011;37654;51.262;17.058;2023-02-01T09:30:29;18.70;;;4.18;;
51560;SDS011;37654;51.262;17.058;2023-02-01T09:32:54;29.00;;;7.72;;
51560;SDS011;37654;51.262;17.058;2023-02-01T09:35:19;51.10;;;12.63;;
51560;SDS011;37654;51.262;17.058;2023-02-01T09:37:45;42.38;;;11.57;;
51560;SDS011;37654;51.262;17.058;2023-02-01T09:40:12;29.55;;;7.63;;
51560;SDS011;37654;51.262;17.058;2023-02-01T09:48:11;19.23;;;3.88;;
51560;SDS011;37654;51.262;17.058;2023-02-01T09:50:41;13.65;;;4.03;;
51560;SDS011;37654;51.262;17.058;2023-02-01T09:53:23;10.73;;;3.42;;
51560;SDS011;37654;51.262;17.058;2023-02-01T09:56:00;13.13;;;4.00;;
51560;SDS011;37654;51.262;17.058;2023-02-01T10:01:18;15.18;;;3.90;;
51560;SDS011;37654;51.262;17.058;2023-02-01T10:03:46;11.95;;;3.75;;
51560;SDS011;37654;51.262;17.058;2023-02-01T10:14:46;12.40;;;4.65;;
51560;SDS011;37654;51.262;17.058;2023-02-01T10:22:43;25.58;;;6.30;;
51560;SDS011;37654;51.262;17.058;2023-02-01T10:28:03;15.07;;;3.60;;
51560;SDS011;37654;51.262;17.058;2023-02-01T10:30:43;14.10;;;3.10;;
51560;SDS011;37654;51.262;17.058;2023-02-01T10:36:04;10.40;;;3.42;;
51560;SDS011;37654;51.262;17.058;2023-02-01T10:38:35;9.57;;;3.33;;
51560;SDS011;37654;51.262;17.058;2023-02-01T10:41:23;10.43;;;3.70;;
51560;SDS011;37654;51.262;17.058;2023-02-01T10:43:57;14.80;;;4.07;;
51560;SDS011;37654;51.262;17.058;2023-02-01T10:46:24;10.60;;;3.20;;
51560;SDS011;37654;51.262;17.058;2023-02-01T10:48:50;12.95;;;3.78;;
51560;SDS011;37654;51.262;17.058;2023-02-01T10:51:20;9.00;;;3.10;;
51560;SDS011;37654;51.262;17.058;2023-02-01T10:53:56;13.50;;;3.83;;
51560;SDS011;37654;51.262;17.058;2023-02-01T10:56:28;11.88;;;2.80;;
51560;SDS011;37654;51.262;17.058;2023-02-01T10:59:05;14.27;;;3.28;;
51560;SDS011;37654;51.262;17.058;2023-02-01T11:01:40;11.02;;;2.83;;
51560;SDS011;37654;51.262;17.058;2023-02-01T11:04:09;10.10;;;2.75;;
51560;SDS011;37654;51.262;17.058;2023-02-01T11:06:37;10.95;;;3.38;;
51560;SDS011;37654;51.262;17.058;2023-02-01T11:11:32;26.02;;;6.55;;
51560;SDS011;37654;51.262;17.058;2023-02-01T11:14:17;30.23;;;6.30;;
51560;SDS011;37654;51.262;17.058;2023-02-01T11:16:47;22.67;;;8.45;;
51560;SDS011;37654;51.262;17.058;2023-02-01T11:19:15;8.88;;;3.78;;
51560;SDS011;37654;51.262;17.058;2023-02-01T11:21:42;13.98;;;4.10;;
51560;SDS011;37654;51.262;17.058;2023-02-01T11:24:20;17.92;;;4.72;;
51560;SDS011;37654;51.262;17.058;2023-02-01T11:26:49;15.00;;;4.10;;
51560;SDS011;37654;51.262;17.058;2023-02-01T11:29:16;8.98;;;3.67;;
51560;SDS011;37654;51.262;17.058;2023-02-01T11:31:44;11.52;;;3.10;;
51560;SDS011;37654;51.262;17.058;2023-02-01T11:34:12;10.13;;;3.83;;
51560;SDS011;37654;51.262;17.058;2023-02-01T11:36:48;13.80;;;4.35;;
51560;SDS011;37654;51.262;17.058;2023-02-01T11:41:44;10.45;;;4.47;;
51560;SDS011;37654;51.262;17.058;2023-02-01T11:49:40;8.50;;;3.47;;
51560;SDS011;37654;51.262;17.058;2023-02-01T12:10:50;8.75;;;3.22;;
51560;SDS011;37654;51.262;17.058;2023-02-01T12:13:48;11.65;;;3.03;;
51560;SDS011;37654;51.262;17.058;2023-02-01T12:26:45;20.15;;;4.63;;
51560;SDS011;37654;51.262;17.058;2023-02-01T12:45:46;4.00;;;2.58;;
51560;SDS011;37654;51.262;17.058;2023-02-01T12:50:54;7.03;;;2.58;;
51560;SDS011;37654;51.262;17.058;2023-02-01T12:53:44;8.45;;;3.20;;
51560;SDS011;37654;51.262;17.058;2023-02-01T12:56:18;6.60;;;3.25;;
51560;SDS011;37654;51.262;17.058;2023-02-01T12:58:49;10.45;;;3.20;;
51560;SDS011;37654;51.262;17.058;2023-02-01T13:03:55;11.48;;;3.30;;
51560;SDS011;37654;51.262;17.058;2023-02-01T13:06:23;7.90;;;3.15;;
51560;SDS011;37654;51.262;17.058;2023-02-01T13:11:24;10.00;;;4.43;;
51560;SDS011;37654;51.262;17.058;2023-02-01T13:17:09;12.95;;;6.53;;
51560;SDS011;37654;51.262;17.058;2023-02-01T13:19:42;15.13;;;3.97;;
51560;SDS011;37654;51.262;17.058;2023-02-01T13:22:17;10.60;;;4.20;;
51560;SDS011;37654;51.262;17.058;2023-02-01T13:24:56;13.48;;;3.78;;
51560;SDS011;37654;51.262;17.058;2023-02-01T13:27:28;10.18;;;3.85;;
51560;SDS011;37654;51.262;17.058;2023-02-01T13:38:09;6.90;;;2.50;;
51560;SDS011;37654;51.262;17.058;2023-02-01T13:43:38;10.77;;;3.95;;
51560;SDS011;37654;51.262;17.058;2023-02-01T13:46:09;10.95;;;4.25;;
51560;SDS011;37654;51.262;17.058;2023-02-01T14:00:30;7.05;;;2.70;;
51560;SDS011;37654;51.262;17.058;2023-02-01T14:19:18;6.80;;;2.90;;
51560;SDS011;37654;51.262;17.058;2023-02-01T14:37:30;8.07;;;3.10;;
51560;SDS011;37654;51.262;17.058;2023-02-01T14:47:49;9.88;;;2.65;;
51560;SDS011;37654;51.262;17.058;2023-02-01T14:55:37;12.23;;;3.13;;
51560;SDS011;37654;51.262;17.058;2023-02-01T14:58:23;6.80;;;1.95;;
51560;SDS011;37654;51.262;17.058;2023-02-01T15:00:58;4.55;;;2.03;;
51560;SDS011;37654;51.262;17.058;2023-02-01T15:09:02;14.20;;;2.97;;
51560;SDS011;37654;51.262;17.058;2023-02-01T15:17:35;8.38;;;2.88;;
51560;SDS011;37654;51.262;17.058;2023-02-01T15:20:02;14.70;;;4.57;;
51560;SDS011;37654;51.262;17.058;2023-02-01T15:22:37;15.05;;;4.18;;
51560;SDS011;37654;51.262;17.058;2023-02-01T15:25:03;8.57;;;2.45;;
51560;SDS011;37654;51.262;17.058;2023-02-01T15:27:29;11.65;;;3.17;;
51560;SDS011;37654;51.262;17.058;2023-02-01T15:30:06;10.25;;;3.08;;
51560;SDS011;37654;51.262;17.058;2023-02-01T15:32:34;13.07;;;4.28;;
51560;SDS011;37654;51.262;17.058;2023-02-01T15:35:03;14.73;;;4.90;;
51560;SDS011;37654;51.262;17.058;2023-02-01T15:37:29;8.35;;;2.63;;
51560;SDS011;37654;51.262;17.058;2023-02-01T15:40:02;17.55;;;3.05;;
51560;SDS011;37654;51.262;17.058;2023-02-01T15:42:29;14.00;;;2.53;;
51560;SDS011;37654;51.262;17.058;2023-02-01T15:44:56;9.18;;;2.25;;
51560;SDS011;37654;51.262;17.058;2023-02-01T15:47:28;10.10;;;2.35;;
51560;SDS011;37654;51.262;17.058;2023-02-01T15:49:56;10.10;;;3.17;;
51560;SDS011;37654;51.262;17.058;2023-02-01T15:54:54;12.02;;;3.53;;
51560;SDS011;37654;51.262;17.058;2023-02-01T15:57:27;14.70;;;2.90;;
51560;SDS011;37654;51.262;17.058;2023-02-01T16:00:01;16.48;;;8.07;;
51560;SDS011;37654;51.262;17.058;2023-02-01T16:02:44;19.73;;;7.43;;
51560;SDS011;37654;51.262;17.058;2023-02-01T16:08:13;13.02;;;3.88;;
51560;SDS011;37654;51.262;17.058;2023-02-01T16:10:50;10.00;;;4.32;;
51560;SDS011;37654;51.262;17.058;2023-02-01T16:13:18;11.38;;;3.58;;
51560;SDS011;37654;51.262;17.058;2023-02-01T16:15:45;8.35;;;2.20;;
51560;SDS011;37654;51.262;17.058;2023-02-01T16:18:11;13.30;;;4.03;;
51560;SDS011;37654;51.262;17.058;2023-02-01T16:20:39;8.45;;;3.03;;
51560;SDS011;37654;51.262;17.058;2023-02-01T16:23:06;6.00;;;2.35;;
51560;SDS011;37654;51.262;17.058;2023-02-01T16:25:33;8.27;;;2.22;;
51560;SDS011;37654;51.262;17.058;2023-02-01T16:28:00;6.80;;;3.08;;
51560;SDS011;37654;51.262;17.058;2023-02-01T16:30:25;8.13;;;2.38;;
51560;SDS011;37654;51.262;17.058;2023-02-01T16:32:58;11.57;;;4.22;;
51560;SDS011;37654;51.262;17.058;2023-02-01T16:35:28;16.75;;;5.88;;
51560;SDS011;37654;51.262;17.058;2023-02-01T16:38:11;14.70;;;4.07;;
51560;SDS011;37654;51.262;17.058;2023-02-01T16:40:39;14.45;;;4.38;;
51560;SDS011;37654;51.262;17.058;2023-02-01T16:43:12;6.55;;;2.72;;
51560;SDS011;37654;51.262;17.058;2023-02-01T16:45:41;8.40;;;3.22;;
51560;SDS011;37654;51.262;17.058;2023-02-01T16:48:10;8.65;;;3.13;;
51560;SDS011;37654;51.262;17.058;2023-02-01T16:50:47;6.10;;;2.45;;
51560;SDS011;37654;51.262;17.058;2023-02-01T16:53:16;7.40;;;3.30;;
51560;SDS011;37654;51.262;17.058;2023-02-01T16:55:42;14.82;;;3.65;;
51560;SDS011;37654;51.262;17.058;2023-02-01T16:58:08;8.68;;;3.30;;
51560;SDS011;37654;51.262;17.058;2023-02-01T17:00:34;10.98;;;3.00;;
51560;SDS011;37654;51.262;17.058;2023-02-01T17:03:02;11.50;;;3.03;;
51560;SDS011;37654;51.262;17.058;2023-02-01T17:05:31;11.57;;;2.95;;
51560;SDS011;37654;51.262;17.058;2023-02-01T17:07:58;16.85;;;4.35;;
51560;SDS011;37654;51.262;17.058;2023-02-01T17:10:31;12.57;;;4.90;;
51560;SDS011;37654;51.262;17.058;2023-02-01T17:12:56;14.15;;;4.35;;
51560;SDS011;37654;51.262;17.058;2023-02-01T17:15:23;9.95;;;3.90;;
51560;SDS011;37654;51.262;17.058;2023-02-01T17:17:51;11.10;;;4.18;;
51560;SDS011;37654;51.262;17.058;2023-02-01T17:20:20;12.55;;;4.45;;
51560;SDS011;37654;51.262;17.058;2023-02-01T17:22:48;8.10;;;3.60;;
51560;SDS011;37654;51.262;17.058;2023-02-01T17:25:15;11.63;;;5.18;;
51560;SDS011;37654;51.262;17.058;2023-02-01T17:27:42;7.32;;;4.65;;
51560;SDS011;37654;51.262;17.058;2023-02-01T17:30:09;11.10;;;4.65;;
51560;SDS011;37654;51.262;17.058;2023-02-01T17:32:36;10.68;;;5.38;;
51560;SDS011;37654;51.262;17.058;2023-02-01T17:35:01;10.38;;;5.05;;
51560;SDS011;37654;51.262;17.058;2023-02-01T17:37:29;14.93;;;6.10;;
51560;SDS011;37654;51.262;17.058;2023-02-01T17:39:56;16.90;;;6.75;;
51560;SDS011;37654;51.262;17.058;2023-02-01T17:42:23;18.75;;;7.55;;
51560;SDS011;37654;51.262;17.058;2023-02-01T17:44:51;23.45;;;8.70;;
51560;SDS011;37654;51.262;17.058;2023-02-01T17:47:20;20.10;;;7.95;;
51560;SDS011;37654;51.262;17.058;2023-02-01T17:49:45;22.65;;;8.07;;
51560;SDS011;37654;51.262;17.058;2023-02-01T17:52:15;24.17;;;10.38;;
51560;SDS011;37654;51.262;17.058;2023-02-01T17:54:42;15.20;;;6.80;;
51560;SDS011;37654;51.262;17.058;2023-02-01T17:57:12;18.65;;;6.82;;
51560;SDS011;37654;51.262;17.058;2023-02-01T17:59:38;14.55;;;5.35;;
51560;SDS011;37654;51.262;17.058;2023-02-01T18:02:08;17.52;;;7.13;;
51560;SDS011;37654;51.262;17.058;2023-02-01T18:04:42;17.60;;;6.93;;
51560;SDS011;37654;51.262;17.058;2023-02-01T18:07:07;21.60;;;7.75;;
51560;SDS011;37654;51.262;17.058;2023-02-01T18:09:33;18.67;;;7.57;;
51560;SDS011;37654;51.262;17.058;2023-02-01T18:11:58;24.33;;;7.40;;